createdAt,value
2019-01-15T00:02:08.867Z,101474.20
2019-01-15T00:04:37.171Z,101473.50
2019-01-15T00:07:05.548Z,101471.63
2019-01-15T00:09:33.794Z,101466.66
2019-01-15T00:12:07.787Z,101465.83
2019-01-15T00:14:32.058Z,101461.86
2019-01-15T00:17:00.458Z,101454.66
2019-01-15T00:19:28.752Z,101451.48
2019-01-15T00:21:57.069Z,101457.64
2019-01-15T00:24:27.455Z,101457.14
2019-01-15T00:26:57.234Z,101460.66
2019-01-15T00:29:25.655Z,101452.91
2019-01-15T00:31:54.565Z,101459.07
2019-01-15T00:34:22.935Z,101452.12
2019-01-15T00:36:51.260Z,101438.73
2019-01-15T00:39:19.976Z,101453.21
2019-01-15T00:41:48.541Z,101462.62
2019-01-15T00:44:16.826Z,101462.34
2019-01-15T00:46:45.104Z,101460.50
2019-01-15T00:49:13.471Z,101451.67
2019-01-15T00:51:41.802Z,101441.46
2019-01-15T00:54:10.164Z,101436.11
2019-01-15T00:56:38.433Z,101441.42
2019-01-15T00:59:06.812Z,101442.25
2019-01-15T01:01:35.096Z,101435.06
2019-01-15T01:04:03.609Z,101441.71
2019-01-15T01:06:31.965Z,101442.76
2019-01-15T01:09:00.223Z,101447.31
2019-01-15T01:11:28.545Z,101445.44
2019-01-15T01:13:56.817Z,101439.33
2019-01-15T01:16:25.125Z,101437.14
2019-01-15T01:18:53.442Z,101440.33
2019-01-15T01:21:21.729Z,101445.98
2019-01-15T01:23:49.987Z,101433.13
2019-01-15T01:26:18.238Z,101437.94
2019-01-15T01:28:46.515Z,101435.55
2019-01-15T01:31:14.803Z,101432.88
2019-01-15T01:33:43.106Z,101430.75
2019-01-15T01:36:11.354Z,101432.34
2019-01-15T01:38:39.645Z,101429.16
2019-01-15T01:41:08.031Z,101424.34
2019-01-15T01:43:36.330Z,101426.27
2019-01-15T01:46:04.619Z,101415.02
2019-01-15T01:48:32.905Z,101410.75
2019-01-15T01:51:01.166Z,101402.80
2019-01-15T01:53:29.450Z,101401.46
2019-01-15T01:55:58.074Z,101404.19
2019-01-15T01:58:26.398Z,101397.48
2019-01-15T02:00:54.706Z,101408.24
2019-01-15T02:03:23.007Z,101405.27
2019-01-15T02:05:51.277Z,101410.59
2019-01-15T02:08:19.526Z,101396.39
2019-01-15T02:10:47.843Z,101399.12
2019-01-15T02:13:16.148Z,101394.55
2019-01-15T02:15:44.438Z,101395.30
2019-01-15T02:18:12.700Z,101400.13
2019-01-15T02:20:40.963Z,101396.06
2019-01-15T02:23:09.297Z,101397.16
2019-01-15T02:25:37.559Z,101392.34
2019-01-15T02:28:05.842Z,101389.70
2019-01-15T02:30:34.189Z,101382.75
2019-01-15T02:33:02.647Z,101383.55
2019-01-15T02:35:30.894Z,101384.14
2019-01-15T02:37:59.234Z,101382.83
2019-01-15T02:40:27.533Z,101388.44
2019-01-15T02:42:55.779Z,101386.05
2019-01-15T02:45:24.058Z,101383.67
2019-01-15T02:47:52.308Z,101374.30
2019-01-15T02:50:21.163Z,101377.55
2019-01-15T02:52:49.454Z,101379.98
2019-01-15T02:55:17.714Z,101371.45
2019-01-15T02:57:46.021Z,101363.95
2019-01-15T03:00:17.136Z,101371.20
2019-01-15T03:02:45.429Z,101363.16
2019-01-15T03:05:13.913Z,101359.64
2019-01-15T03:07:42.214Z,101369.59
2019-01-15T03:10:13.339Z,101364.50
2019-01-15T03:12:43.373Z,101356.24
2019-01-15T03:15:11.617Z,101349.55
2019-01-15T03:17:39.869Z,101354.07
2019-01-15T03:20:13.550Z,101349.84
2019-01-15T03:22:41.803Z,101350.92
2019-01-15T03:25:10.467Z,101345.02
2019-01-15T03:27:38.856Z,101336.98
2019-01-15T03:30:10.854Z,101333.76
2019-01-15T03:32:39.164Z,101330.79
2019-01-15T03:35:07.596Z,101325.94
2019-01-15T03:37:35.847Z,101318.45
2019-01-15T03:40:07.013Z,101320.88
2019-01-15T03:42:35.259Z,101322.97
2019-01-15T03:45:04.985Z,101326.98
2019-01-15T03:47:33.504Z,101324.05
2019-01-15T03:50:01.774Z,101325.65
2019-01-15T03:52:30.035Z,101330.21
2019-01-15T03:54:58.344Z,101324.09
2019-01-15T03:57:26.628Z,101329.48
2019-01-15T03:59:54.903Z,101323.30
2019-01-15T04:02:23.366Z,101320.40
2019-01-15T04:04:51.942Z,101325.00
2019-01-15T04:07:20.336Z,101330.86
2019-01-15T04:09:49.494Z,101332.02
2019-01-15T04:12:17.762Z,101330.69
2019-01-15T04:14:46.101Z,101314.38
2019-01-15T04:17:14.402Z,101317.39
2019-01-15T04:19:42.713Z,101314.27
2019-01-15T04:22:11.038Z,101315.35
2019-01-15T04:24:39.426Z,101304.92
2019-01-15T04:27:07.682Z,101299.59
2019-01-15T04:29:35.941Z,101300.89
2019-01-15T04:32:04.225Z,101300.89
2019-01-15T04:34:32.521Z,101289.92
2019-01-15T04:37:00.838Z,101290.49
2019-01-15T04:39:29.118Z,101292.12
2019-01-15T04:41:57.359Z,101278.20
2019-01-15T04:44:25.644Z,101268.31
2019-01-15T04:46:53.953Z,101258.95
2019-01-15T04:49:22.365Z,101252.00
2019-01-15T04:51:50.618Z,101251.20
2019-01-15T04:54:18.877Z,101244.52
2019-01-15T04:56:47.461Z,101246.17
2019-01-15T04:59:15.829Z,101246.17
2019-01-15T05:01:44.208Z,101241.92
2019-01-15T05:04:12.587Z,101239.02
2019-01-15T05:06:40.834Z,101234.81
2019-01-15T05:09:09.282Z,101234.81
2019-01-15T05:11:37.591Z,101228.13
2019-01-15T05:14:05.842Z,101231.38
2019-01-15T05:16:34.132Z,101230.66
2019-01-15T05:19:02.436Z,101225.59
2019-01-15T05:21:31.384Z,101222.67
2019-01-15T05:23:59.693Z,101217.84
2019-01-15T05:26:28.325Z,101218.95
2019-01-15T05:28:56.928Z,101228.69
2019-01-15T05:31:25.266Z,101231.12
2019-01-15T05:33:53.542Z,101231.42
2019-01-15T05:36:21.969Z,101228.78
2019-01-15T05:38:50.208Z,101224.53
2019-01-15T05:41:18.493Z,101224.53
2019-01-15T05:43:46.816Z,101212.98
2019-01-15T05:46:15.068Z,101213.03
2019-01-15T05:48:43.513Z,101211.14
2019-01-15T05:51:13.426Z,101209.03
2019-01-15T05:53:41.689Z,101224.88
2019-01-15T05:56:10.021Z,101213.59
2019-01-15T05:58:38.390Z,101205.29
2019-01-15T06:01:06.921Z,101207.72
2019-01-15T06:03:35.248Z,101200.45
2019-01-15T06:06:03.680Z,101204.23
2019-01-15T06:08:33.379Z,101192.16
2019-01-15T06:11:01.927Z,101192.16
2019-01-15T06:13:30.302Z,101188.44
2019-01-15T06:15:58.587Z,101191.41
2019-01-15T06:18:26.881Z,101193.02
2019-01-15T06:20:55.198Z,101196.00
2019-01-15T06:23:23.557Z,101202.19
2019-01-15T06:25:51.900Z,101204.87
2019-01-15T06:28:20.199Z,101204.87
2019-01-15T06:30:48.556Z,101201.95
2019-01-15T06:33:16.829Z,101185.28
2019-01-15T06:35:45.091Z,101178.32
2019-01-15T06:38:13.446Z,101175.09
2019-01-15T06:40:41.751Z,101175.09
2019-01-15T06:43:09.991Z,101154.94
2019-01-15T06:45:38.279Z,101158.17
2019-01-15T06:48:10.034Z,101159.53
2019-01-15T06:50:38.333Z,101159.53
2019-01-15T06:53:06.621Z,101158.19
2019-01-15T06:55:35.078Z,101168.38
2019-01-15T06:58:03.376Z,101178.34
2019-01-15T07:00:32.282Z,101182.67
2019-01-15T07:03:00.540Z,101172.97
2019-01-15T07:05:28.914Z,101172.97
2019-01-15T07:07:57.237Z,101182.67
2019-01-15T07:10:28.227Z,101182.67
2019-01-15T07:12:56.631Z,101181.60
2019-01-15T07:15:24.952Z,101178.65
2019-01-15T07:17:53.211Z,101165.73
2019-01-15T07:20:21.492Z,101165.73
2019-01-15T07:22:49.843Z,101163.88
2019-01-15T07:25:23.655Z,101164.41
2019-01-15T07:27:51.905Z,101182.97
2019-01-15T07:30:23.526Z,101169.81
2019-01-15T07:32:51.811Z,101169.30
2019-01-15T07:35:20.091Z,101159.63
2019-01-15T07:37:48.374Z,101158.56
2019-01-15T07:40:16.683Z,101158.56
2019-01-15T07:42:44.944Z,101149.16
2019-01-15T07:45:14.202Z,101149.16
2019-01-15T07:47:42.469Z,101169.63
2019-01-15T07:50:20.976Z,101176.60
2019-01-15T07:52:49.402Z,101176.60
2019-01-15T07:55:18.947Z,101174.21
2019-01-15T07:57:47.220Z,101172.06
2019-01-15T08:00:20.404Z,101170.48
2019-01-15T08:02:49.329Z,101154.05
2019-01-15T08:05:19.765Z,101154.05
2019-01-15T08:07:48.080Z,101156.27
2019-01-15T08:10:17.628Z,101163.27
2019-01-15T08:12:45.951Z,101163.00
2019-01-15T08:15:17.336Z,101163.00
2019-01-15T08:17:45.642Z,101163.02
2019-01-15T08:20:14.562Z,101153.05
2019-01-15T08:22:42.863Z,101153.05
2019-01-15T08:25:13.638Z,101157.38
2019-01-15T08:27:41.918Z,101150.90
2019-01-15T08:30:28.056Z,101150.90
2019-01-15T08:32:56.322Z,101143.38
2019-01-15T08:35:24.598Z,101139.63
2019-01-15T08:37:52.850Z,101147.98
2019-01-15T08:40:21.373Z,101145.53
2019-01-15T08:42:49.623Z,101143.40
2019-01-15T08:45:18.595Z,101149.86
2019-01-15T08:47:51.507Z,101141.23
2019-01-15T08:50:22.755Z,101153.89
2019-01-15T08:52:51.020Z,101146.34
2019-01-15T08:55:19.344Z,101143.66
2019-01-15T08:57:47.655Z,101147.70
2019-01-15T09:00:15.899Z,101147.70
2019-01-15T09:02:44.448Z,101145.56
2019-01-15T09:05:12.877Z,101138.83
2019-01-15T09:07:41.120Z,101141.52
2019-01-15T09:10:12.804Z,101144.73
2019-01-15T09:12:41.188Z,101137.48
2019-01-15T09:15:12.328Z,101137.73
2019-01-15T09:17:40.610Z,101138.28
2019-01-15T09:20:12.311Z,101141.25
2019-01-15T09:22:40.565Z,101134.25
2019-01-15T09:25:08.833Z,101136.66
2019-01-15T09:27:37.128Z,101135.31
2019-01-15T09:30:12.290Z,101136.66
2019-01-15T09:32:40.586Z,101130.73
2019-01-15T09:35:08.858Z,101134.25
2019-01-15T09:37:37.310Z,101128.86
2019-01-15T09:40:09.095Z,101126.69
2019-01-15T09:42:37.379Z,101119.96
2019-01-15T09:45:08.902Z,101120.51
2019-01-15T09:47:38.853Z,101128.31
2019-01-15T09:50:10.648Z,101121.30
2019-01-15T09:52:39.168Z,101119.68
2019-01-15T09:55:08.789Z,101129.65
2019-01-15T09:57:37.364Z,101123.98
2019-01-15T10:00:13.883Z,101127.47
2019-01-15T10:02:42.139Z,101134.20
2019-01-15T10:05:10.403Z,101127.73
2019-01-15T10:07:38.738Z,101132.02
2019-01-15T10:10:10.282Z,101135.81
2019-01-15T10:12:38.528Z,101126.38
2019-01-15T10:15:12.625Z,101131.73
2019-01-15T10:17:40.886Z,101125.00
2019-01-15T10:20:11.297Z,101126.61
2019-01-15T10:22:39.598Z,101129.58
2019-01-15T10:25:10.491Z,101118.53
2019-01-15T10:27:39.026Z,101119.87
2019-01-15T10:30:21.277Z,101110.99
2019-01-15T10:32:55.690Z,101115.03
2019-01-15T10:35:27.266Z,101113.39
2019-01-15T10:37:55.509Z,101119.84
2019-01-15T10:40:23.873Z,101109.34
2019-01-15T10:42:52.147Z,101103.12
2019-01-15T10:45:20.426Z,101103.67
2019-01-15T10:47:48.720Z,101103.67
2019-01-15T10:50:17.040Z,101104.48
2019-01-15T10:52:45.319Z,101103.95
2019-01-15T10:55:13.672Z,101101.00
2019-01-15T10:57:41.955Z,101102.34
2019-01-15T11:00:15.314Z,101096.41
2019-01-15T11:02:43.581Z,101095.59
2019-01-15T11:05:12.326Z,101093.97
2019-01-15T11:07:40.651Z,101086.14
2019-01-15T11:10:12.329Z,101082.62
2019-01-15T11:12:40.580Z,101071.33
2019-01-15T11:15:09.286Z,101071.84
2019-01-15T11:17:37.573Z,101083.66
2019-01-15T11:20:09.093Z,101087.97
2019-01-15T11:22:37.390Z,101080.15
2019-01-15T11:25:07.427Z,101075.27
2019-01-15T11:27:35.698Z,101091.43
2019-01-15T11:30:07.034Z,101080.15
2019-01-15T11:32:35.362Z,101078.23
2019-01-15T11:35:04.207Z,101067.45
2019-01-15T11:37:32.469Z,101069.58
2019-01-15T11:40:00.741Z,101062.82
2019-01-15T11:42:29.062Z,101064.16
2019-01-15T11:45:03.342Z,101055.53
2019-01-15T11:47:27.306Z,101059.32
2019-01-15T11:49:55.586Z,101063.60
2019-01-15T11:52:23.876Z,101056.34
2019-01-15T11:54:52.145Z,101045.78
2019-01-15T11:57:20.532Z,101051.43
2019-01-15T11:59:48.800Z,101035.54
2019-01-15T12:02:22.336Z,101034.98
2019-01-15T12:04:50.306Z,101031.21
2019-01-15T12:07:26.483Z,101030.69
2019-01-15T12:10:02.171Z,101026.63
2019-01-15T12:12:37.971Z,101027.68
2019-01-15T12:15:11.459Z,101027.61
2019-01-15T12:17:53.430Z,101024.91
2019-01-15T12:20:29.316Z,101026.25
2019-01-15T12:23:02.385Z,101021.94
2019-01-15T12:25:35.056Z,101022.42
2019-01-15T12:28:23.058Z,101015.91
2019-01-15T12:31:01.963Z,101019.67
2019-01-15T12:33:40.593Z,101012.91
2019-01-15T12:36:26.658Z,101026.64
2019-01-15T12:38:59.023Z,101020.43
2019-01-15T12:41:28.934Z,101015.28
2019-01-15T12:43:58.855Z,101013.94
2019-01-15T12:46:31.297Z,101008.76
2019-01-15T12:49:12.986Z,101003.10
2019-01-15T12:51:51.772Z,101003.63
2019-01-15T12:54:24.559Z,101007.61
2019-01-15T12:56:54.454Z,101006.55
2019-01-15T12:59:52.715Z,101002.20
2019-01-15T13:02:32.101Z,100995.72
2019-01-15T13:05:14.194Z,100995.70
2019-01-15T13:07:49.832Z,100995.67
2019-01-15T13:10:36.745Z,100992.66
2019-01-15T13:13:23.215Z,100988.62
2019-01-15T13:15:56.784Z,100987.50
2019-01-15T13:18:32.687Z,100984.80
2019-01-15T13:21:08.649Z,100983.98
2019-01-15T13:23:44.601Z,100984.55
2019-01-15T13:26:20.523Z,100981.56
2019-01-15T13:29:06.561Z,100973.92
2019-01-15T13:31:36.481Z,100979.34
2019-01-15T13:34:15.036Z,100985.30
2019-01-15T13:36:47.907Z,100984.43
2019-01-15T13:39:30.080Z,100973.63
2019-01-15T13:42:00.115Z,100982.02
2019-01-15T13:44:42.107Z,100975.27
2019-01-15T13:47:17.800Z,100976.09
2019-01-15T13:49:47.757Z,100975.53
2019-01-15T13:52:34.027Z,100980.38
2019-01-15T13:55:19.373Z,100981.52
2019-01-15T13:58:06.183Z,100986.09
2019-01-15T14:00:36.115Z,100980.72
2019-01-15T14:03:08.783Z,100987.75
2019-01-15T14:05:38.731Z,100980.47
2019-01-15T14:08:08.638Z,100986.95
2019-01-15T14:10:47.439Z,100982.08
2019-01-15T14:13:29.376Z,100981.56
2019-01-15T14:15:59.332Z,100988.83
2019-01-15T14:18:32.167Z,100986.97
2019-01-15T14:21:02.087Z,100987.75
2019-01-15T14:23:50.172Z,100986.66
2019-01-15T14:26:20.078Z,100973.73
2019-01-15T14:28:50.120Z,100986.98
2019-01-15T14:31:29.416Z,100989.97
2019-01-15T14:34:11.124Z,100985.92
2019-01-15T14:36:57.356Z,100980.23
2019-01-15T14:39:27.309Z,100988.85
2019-01-15T14:41:57.217Z,100976.70
2019-01-15T14:44:42.335Z,100972.95
2019-01-15T14:47:28.399Z,100982.93
2019-01-15T14:50:10.255Z,100974.59
2019-01-15T14:52:54.912Z,100975.14
2019-01-15T14:55:41.096Z,100978.38
2019-01-15T14:58:14.008Z,100979.17
2019-01-15T15:00:46.722Z,100971.63
2019-01-15T15:03:16.614Z,100976.20
2019-01-15T15:05:46.598Z,100971.12
2019-01-15T15:08:16.493Z,100980.59
2019-01-15T15:10:46.411Z,100982.42
2019-01-15T15:13:16.473Z,100981.63
2019-01-15T15:16:03.619Z,100974.09
2019-01-15T15:18:29.825Z,100980.56
2019-01-15T15:21:05.493Z,100983.02
2019-01-15T15:23:47.533Z,100978.97
2019-01-15T15:26:32.360Z,100972.25
2019-01-15T15:29:04.914Z,100974.75
2019-01-15T15:31:40.757Z,100975.56
2019-01-15T15:34:10.685Z,100981.76
2019-01-15T15:36:46.690Z,100978.84
2019-01-15T15:39:28.634Z,100967.77
2019-01-15T15:42:04.488Z,100983.13
2019-01-15T15:44:40.422Z,100977.53
2019-01-15T15:47:10.395Z,100974.55
2019-01-15T15:49:40.308Z,100969.97
2019-01-15T15:52:10.321Z,100974.02
2019-01-15T15:54:43.010Z,100972.98
2019-01-15T15:57:15.358Z,100971.12
2019-01-15T15:59:57.284Z,100971.94
2019-01-15T16:02:43.490Z,100969.02
2019-01-15T16:05:29.251Z,100970.59
2019-01-15T16:08:14.503Z,100968.95
2019-01-15T16:10:44.416Z,100971.16
2019-01-15T16:13:17.089Z,100963.86
2019-01-15T16:16:01.824Z,100966.33
2019-01-15T16:18:40.839Z,100961.78
2019-01-15T16:21:13.156Z,100956.42
2019-01-15T16:23:55.386Z,100952.69
2019-01-15T16:26:33.993Z,100949.73
2019-01-15T16:29:13.160Z,100946.00
2019-01-15T16:31:43.066Z,100946.00
2019-01-15T16:34:18.850Z,100954.12
2019-01-15T16:37:00.711Z,100956.05
2019-01-15T16:39:46.763Z,100952.53
2019-01-15T16:42:32.778Z,100951.48
2019-01-15T16:45:18.926Z,100947.16
2019-01-15T16:47:54.687Z,100949.29
2019-01-15T16:50:36.508Z,100949.02
2019-01-15T16:53:22.593Z,100943.14
2019-01-15T16:56:07.607Z,100949.88
2019-01-15T16:58:42.997Z,100934.78
2019-01-15T17:01:15.781Z,100934.27
2019-01-15T17:03:48.240Z,100949.34
2019-01-15T17:06:18.135Z,100949.05
2019-01-15T17:09:04.184Z,100940.48
2019-01-15T17:11:48.835Z,100945.59
2019-01-15T17:14:24.438Z,100935.63
2019-01-15T17:17:06.101Z,100936.41
2019-01-15T17:19:42.318Z,100941.05
2019-01-15T17:22:12.393Z,100935.88
2019-01-15T17:25:00.179Z,100933.75
2019-01-15T17:27:46.224Z,100930.79
2019-01-15T17:30:19.740Z,100932.98
2019-01-15T17:32:55.441Z,100932.98
2019-01-15T17:35:28.283Z,100947.52
2019-01-15T17:38:10.428Z,100946.96
2019-01-15T17:40:43.435Z,100938.84
2019-01-15T17:43:30.372Z,100935.07
2019-01-15T17:46:00.434Z,100931.05
2019-01-15T17:48:36.470Z,100939.94
2019-01-15T17:51:12.503Z,100936.45
2019-01-15T17:54:02.167Z,100936.45
2019-01-15T17:56:41.168Z,100937.53
2019-01-15T17:59:19.730Z,100937.24
2019-01-15T18:01:52.784Z,100940.20
2019-01-15T18:04:25.827Z,100946.42
2019-01-15T18:07:05.049Z,100944.77
2019-01-15T18:09:55.035Z,100939.66
2019-01-15T18:12:30.875Z,100940.73
2019-01-15T18:15:17.127Z,100944.79
2019-01-15T18:17:50.072Z,100945.06
2019-01-15T18:20:22.894Z,100944.79
2019-01-15T18:23:09.648Z,100945.06
2019-01-15T18:25:39.590Z,100946.63
2019-01-15T18:28:12.283Z,100939.89
2019-01-15T18:30:48.296Z,100941.77
2019-01-15T18:33:34.602Z,100944.73
2019-01-15T18:36:22.460Z,100944.18
2019-01-15T18:38:58.284Z,100943.64
2019-01-15T18:41:31.173Z,100936.65
2019-01-15T18:44:17.230Z,100946.08
2019-01-15T18:46:55.753Z,100947.95
2019-01-15T18:49:39.468Z,100947.45
2019-01-15T18:52:25.771Z,100951.48
2019-01-15T18:55:14.003Z,100944.73
2019-01-15T18:57:49.339Z,100946.32
2019-01-15T19:00:28.254Z,100947.67
2019-01-15T19:03:04.500Z,100943.91
2019-01-15T19:05:40.556Z,100949.03
2019-01-15T19:08:16.451Z,100949.29
2019-01-15T19:10:52.467Z,100951.98
2019-01-15T19:13:38.395Z,100946.02
2019-01-15T19:16:14.224Z,100942.53
2019-01-15T19:19:00.356Z,100945.78
2019-01-15T19:21:30.401Z,100946.02
2019-01-15T19:24:12.673Z,100946.27
2019-01-15T19:26:48.252Z,100941.72
2019-01-15T19:29:33.323Z,100936.83
2019-01-15T19:32:03.408Z,100943.28
2019-01-15T19:34:42.072Z,100939.02
2019-01-15T19:37:24.312Z,100940.89
2019-01-15T19:39:59.965Z,100940.61
2019-01-15T19:42:48.159Z,100934.96
2019-01-15T19:45:26.182Z,100937.66
2019-01-15T19:47:58.986Z,100941.16
2019-01-15T19:50:29.134Z,100939.02
2019-01-15T19:53:10.927Z,100944.12
2019-01-15T19:55:40.914Z,100951.95
2019-01-15T19:58:27.247Z,100942.24
2019-01-15T20:01:03.282Z,100945.98
2019-01-15T20:03:36.070Z,100947.09
2019-01-15T20:06:06.078Z,100943.82
2019-01-15T20:08:39.205Z,100946.50
2019-01-15T20:11:14.861Z,100950.77
2019-01-15T20:13:47.688Z,100945.91
2019-01-15T20:16:34.379Z,100942.92
2019-01-15T20:19:21.281Z,100938.89
2019-01-15T20:22:03.321Z,100939.70
2019-01-15T20:24:35.923Z,100945.86
2019-01-15T20:27:06.121Z,100945.31
2019-01-15T20:29:36.195Z,100943.44
2019-01-15T20:32:18.813Z,100946.68
2019-01-15T20:34:51.320Z,100946.66
2019-01-15T20:37:27.031Z,100946.66
2019-01-15T20:39:59.389Z,100940.77
2019-01-15T20:42:45.984Z,100940.74
2019-01-15T20:45:27.889Z,100937.76
2019-01-15T20:48:03.684Z,100938.55
2019-01-15T20:50:36.524Z,100939.11
2019-01-15T20:53:18.780Z,100944.77
2019-01-15T20:55:54.696Z,100943.94
2019-01-15T20:58:30.352Z,100943.66
2019-01-15T21:01:16.545Z,100948.23
2019-01-15T21:03:52.651Z,100943.13
2019-01-15T21:06:38.825Z,100947.44
2019-01-15T21:09:15.383Z,100946.35
2019-01-15T21:11:53.982Z,100947.20
2019-01-15T21:14:35.883Z,100943.11
2019-01-15T21:17:08.671Z,100939.56
2019-01-15T21:19:47.782Z,100942.24
2019-01-15T21:22:20.890Z,100940.89
2019-01-15T21:24:53.566Z,100940.62
2019-01-15T21:27:26.244Z,100936.09
2019-01-15T21:30:02.141Z,100935.54
2019-01-15T21:32:34.754Z,100926.91
2019-01-15T21:35:13.588Z,100930.95
2019-01-15T21:37:43.496Z,100927.14
2019-01-15T21:40:13.394Z,100932.53
2019-01-15T21:42:58.201Z,100928.23
2019-01-15T21:45:40.129Z,100934.12
2019-01-15T21:48:16.084Z,100931.70
2019-01-15T21:50:53.702Z,100933.86
2019-01-15T21:53:23.404Z,100932.52
2019-01-15T21:55:53.355Z,100924.13
2019-01-15T21:58:35.110Z,100920.14
2019-01-15T22:01:05.211Z,100927.09
2019-01-15T22:03:37.788Z,100919.58
2019-01-15T22:06:22.838Z,100929.30
2019-01-15T22:08:58.805Z,100921.48
2019-01-15T22:11:43.887Z,100923.36
2019-01-15T22:14:29.884Z,100911.76
2019-01-15T22:16:59.950Z,100924.11
2019-01-15T22:19:49.578Z,100920.91
2019-01-15T22:22:35.595Z,100923.31
2019-01-15T22:25:15.749Z,100910.09
2019-01-15T22:28:00.742Z,100909.02
2019-01-15T22:30:33.396Z,100906.84
2019-01-15T22:33:15.019Z,100907.69
2019-01-15T22:36:01.200Z,100907.64
2019-01-15T22:38:33.927Z,100899.57
2019-01-15T22:41:19.983Z,100904.44
2019-01-15T22:43:49.885Z,100897.98
2019-01-15T22:46:21.799Z,100896.36
2019-01-15T22:48:51.783Z,100902.31
2019-01-15T22:51:38.171Z,100890.41
2019-01-15T22:54:23.009Z,100887.45
2019-01-15T22:57:01.730Z,100883.09
2019-01-15T22:59:31.685Z,100886.08
2019-01-15T23:02:01.588Z,100879.58
2019-01-15T23:04:40.427Z,100884.97
2019-01-15T23:07:19.323Z,100885.55
2019-01-15T23:09:52.538Z,100878.52
2019-01-15T23:12:26.169Z,100873.09
2019-01-15T23:15:22.802Z,100865.05
2019-01-15T23:18:10.668Z,100871.77
2019-01-15T23:20:46.363Z,100865.30
2019-01-15T23:23:21.915Z,100857.47
2019-01-15T23:26:09.944Z,100856.41
2019-01-15T23:28:46.686Z,100852.89
2019-01-15T23:31:22.394Z,100841.02
2019-01-15T23:33:54.511Z,100841.31
2019-01-15T23:36:29.322Z,100845.88
2019-01-15T23:38:56.702Z,100849.41
2019-01-15T23:41:43.673Z,100851.56
2019-01-15T23:44:22.505Z,100845.09
2019-01-15T23:46:54.185Z,100856.17
2019-01-15T23:49:27.170Z,100851.56
2019-01-15T23:52:09.217Z,100841.05
2019-01-15T23:54:47.990Z,100846.17
2019-01-15T23:57:23.717Z,100836.73
2019-01-15T23:59:53.695Z,100844.32
